Pridgen, Georgia
Current Conditions -  °F | °C
As of 10:35 PM on Monday 22 Dec 2014 (Local Time) from KDQH Reporting Station
Haze Haze  
Wind Chill: 55°   Ceiling: 200
Heat Index: 55°   Visibility: 1.2mi
Dew Point: 55°   Wind: 3mph
Humidity: 100%   Direction: 110°ESE
Pressure: 29.94"   Gusts: NA
Location:  31.6888°N, 82.911°W
Report Text: KDQH 230335Z AUTO 11003KT 1 1/4SM BR OVC002 13/13 A2994 RMK AO2 LTG DSNT E THRU SW
Loading
Personal Weather Stations






























Interactive Weather Map New forecast layout! Learn more

10-Day Weather Forecast

Advertisements
Track Severe Weather on mobile